createdAt,value
2017-12-04T00:00:55.157Z,111.53
2017-12-04T00:03:22.076Z,112.53
2017-12-04T00:05:51.813Z,110.72
2017-12-04T00:08:20.333Z,102.00
2017-12-04T00:10:48.834Z,96.15
2017-12-04T00:13:15.891Z,100.57
2017-12-04T00:15:42.919Z,103.20
2017-12-04T00:18:09.827Z,115.18
2017-12-04T00:20:37.814Z,103.78
2017-12-04T00:23:06.055Z,112.57
2017-12-04T00:25:34.595Z,113.50
2017-12-04T00:28:01.897Z,119.28
2017-12-04T00:30:29.553Z,111.68
2017-12-04T00:32:56.655Z,108.43
2017-12-04T00:35:24.018Z,97.53
2017-12-04T00:37:50.910Z,107.97
2017-12-04T00:40:19.768Z,109.12
2017-12-04T00:42:47.959Z,110.68
2017-12-04T00:45:15.057Z,119.68
2017-12-04T00:47:43.814Z,112.65
2017-12-04T00:50:11.103Z,107.95
2017-12-04T00:52:38.098Z,111.55
2017-12-04T00:55:05.015Z,98.20
2017-12-04T00:57:32.590Z,103.15
2017-12-04T01:00:00.138Z,104.72
2017-12-04T01:02:27.019Z,104.93
2017-12-04T01:04:54.595Z,112.05
2017-12-04T01:07:22.135Z,106.00
2017-12-04T01:09:48.964Z,114.43
2017-12-04T01:12:15.822Z,96.68
2017-12-04T01:14:42.657Z,102.93
2017-12-04T01:17:09.508Z,107.45
2017-12-04T01:19:36.327Z,109.97
2017-12-04T01:22:03.162Z,107.30
2017-12-04T01:24:29.982Z,98.32
2017-12-04T01:26:56.795Z,100.78
2017-12-04T01:29:23.618Z,100.93
2017-12-04T01:31:50.443Z,128.93
2017-12-04T01:34:17.238Z,120.72
2017-12-04T01:36:44.821Z,119.95
2017-12-04T01:39:12.398Z,109.55
2017-12-04T01:41:40.019Z,122.62
2017-12-04T01:44:06.888Z,125.65
2017-12-04T01:46:33.741Z,122.10
2017-12-04T01:49:00.602Z,120.03
2017-12-04T01:51:27.499Z,116.35
2017-12-04T01:53:54.391Z,126.30
2017-12-04T01:56:21.964Z,128.52
2017-12-04T01:58:49.630Z,123.18
2017-12-04T02:01:16.494Z,123.45
2017-12-04T02:03:44.108Z,108.87
2017-12-04T02:06:10.951Z,104.38
2017-12-04T02:08:37.821Z,122.40
2017-12-04T02:11:05.414Z,119.10
2017-12-04T02:13:32.232Z,112.20
2017-12-04T02:15:59.100Z,122.45
2017-12-04T02:18:25.952Z,100.20
2017-12-04T02:20:52.825Z,133.93
2017-12-04T02:23:19.685Z,118.78
2017-12-04T02:25:46.556Z,105.15
2017-12-04T02:28:14.172Z,115.20
2017-12-04T02:30:41.013Z,116.72
2017-12-04T02:33:07.886Z,117.22
2017-12-04T02:35:34.745Z,131.55
2017-12-04T02:38:01.583Z,125.47
2017-12-04T02:40:29.276Z,133.52
2017-12-04T02:42:56.192Z,131.00
2017-12-04T02:45:23.242Z,131.70
2017-12-04T02:47:50.130Z,131.48
2017-12-04T02:50:17.852Z,128.98
2017-12-04T02:52:44.753Z,119.78
2017-12-04T02:55:11.660Z,128.95
2017-12-04T02:57:38.599Z,117.53
2017-12-04T03:00:05.474Z,126.62
2017-12-04T03:02:32.295Z,137.35
2017-12-04T03:04:59.133Z,135.50
2017-12-04T03:07:25.952Z,119.87
2017-12-04T03:09:52.764Z,138.68
2017-12-04T03:12:20.325Z,109.60
2017-12-04T03:14:47.191Z,134.07
2017-12-04T03:17:14.401Z,117.55
2017-12-04T03:19:41.291Z,113.68
2017-12-04T03:22:08.207Z,116.68
2017-12-04T03:24:35.115Z,124.35
2017-12-04T03:27:02.023Z,134.80
2017-12-04T03:29:28.872Z,141.30
2017-12-04T03:31:55.715Z,139.05
2017-12-04T03:34:23.323Z,136.40
2017-12-04T03:36:50.262Z,131.52
2017-12-04T03:39:17.871Z,138.25
2017-12-04T03:41:44.775Z,131.82
2017-12-04T03:44:11.726Z,142.23
2017-12-04T03:46:38.648Z,151.25
2017-12-04T03:49:05.473Z,129.45
2017-12-04T03:51:33.146Z,131.30
2017-12-04T03:54:00.048Z,134.25
2017-12-04T03:56:26.882Z,133.63
2017-12-04T03:58:54.455Z,135.85
2017-12-04T04:01:22.034Z,135.63
2017-12-04T04:03:49.632Z,122.30
2017-12-04T04:06:16.443Z,142.60
2017-12-04T04:08:43.283Z,147.40
2017-12-04T04:11:10.091Z,157.85
2017-12-04T04:13:36.928Z,153.12
2017-12-04T04:16:03.787Z,132.75
2017-12-04T04:18:30.605Z,143.37
2017-12-04T04:20:57.403Z,165.68
2017-12-04T04:23:24.254Z,149.20
2017-12-04T04:25:51.112Z,138.88
2017-12-04T04:28:17.976Z,153.70
2017-12-04T04:30:44.866Z,146.98
2017-12-04T04:33:11.668Z,148.62
2017-12-04T04:35:38.494Z,161.88
2017-12-04T04:38:05.314Z,145.48
2017-12-04T04:40:32.162Z,156.57
2017-12-04T04:42:59.050Z,153.65
2017-12-04T04:45:25.923Z,134.57
2017-12-04T04:47:52.818Z,151.85
2017-12-04T04:50:20.423Z,131.90
2017-12-04T04:52:47.346Z,168.57
2017-12-04T04:55:14.997Z,160.00
2017-12-04T04:57:41.898Z,153.32
2017-12-04T05:00:09.531Z,149.68
2017-12-04T05:02:36.393Z,161.85
2017-12-04T05:05:03.303Z,167.13
2017-12-04T05:07:30.908Z,159.23
2017-12-04T05:09:57.808Z,185.60
2017-12-04T05:12:24.700Z,159.52
2017-12-04T05:14:51.537Z,170.77
2017-12-04T05:17:18.483Z,171.20
2017-12-04T05:19:45.394Z,166.65
2017-12-04T05:22:13.094Z,180.25
2017-12-04T05:24:39.932Z,189.10
2017-12-04T05:27:06.830Z,182.37
2017-12-04T05:29:33.675Z,156.43
2017-12-04T05:32:00.552Z,182.15
2017-12-04T05:34:27.426Z,180.15
2017-12-04T05:36:54.293Z,178.73
2017-12-04T05:39:21.160Z,195.38
2017-12-04T05:41:48.018Z,161.00
2017-12-04T05:44:14.860Z,178.23
2017-12-04T05:46:41.743Z,186.77
2017-12-04T05:49:09.654Z,185.37
2017-12-04T05:51:37.955Z,181.48
2017-12-04T05:54:05.075Z,175.87
2017-12-04T05:56:31.935Z,171.37
2017-12-04T05:58:58.802Z,181.27
2017-12-04T06:01:25.584Z,178.10
2017-12-04T06:03:52.438Z,177.65
2017-12-04T06:06:19.297Z,170.38
2017-12-04T06:08:46.120Z,162.07
2017-12-04T06:11:12.995Z,155.87
2017-12-04T06:13:39.863Z,159.93
2017-12-04T06:16:06.752Z,161.88
2017-12-04T06:18:33.577Z,157.98
2017-12-04T06:21:01.336Z,146.43
2017-12-04T06:23:28.940Z,154.50
2017-12-04T06:25:55.875Z,159.35
2017-12-04T06:28:23.509Z,169.50
2017-12-04T06:30:50.378Z,157.37
2017-12-04T06:33:17.270Z,167.40
2017-12-04T06:35:44.898Z,147.15
2017-12-04T06:38:11.780Z,149.73
2017-12-04T06:40:38.592Z,143.02
2017-12-04T06:43:05.416Z,145.43
2017-12-04T06:45:32.268Z,151.45
2017-12-04T06:47:59.351Z,147.87
2017-12-04T06:50:26.161Z,148.07
2017-12-04T06:52:52.974Z,161.20
2017-12-04T06:55:20.576Z,133.90
2017-12-04T06:57:47.783Z,156.82
2017-12-04T07:00:14.681Z,134.82
2017-12-04T07:02:41.592Z,138.10
2017-12-04T07:05:08.498Z,177.95
2017-12-04T07:07:35.388Z,137.27
2017-12-04T07:10:02.263Z,126.00
2017-12-04T07:12:29.165Z,126.03
2017-12-04T07:14:55.992Z,126.85
2017-12-04T07:17:22.845Z,125.05
2017-12-04T07:19:49.663Z,130.00
2017-12-04T07:22:16.544Z,126.97
2017-12-04T07:24:44.104Z,129.75
2017-12-04T07:27:10.982Z,125.57
2017-12-04T07:29:38.587Z,134.55
2017-12-04T07:32:05.422Z,134.70
2017-12-04T07:34:33.012Z,131.10
2017-12-04T07:37:00.551Z,128.02
2017-12-04T07:39:27.370Z,140.15
2017-12-04T07:41:54.266Z,122.75
2017-12-04T07:44:21.117Z,137.02
2017-12-04T07:46:47.954Z,136.32
2017-12-04T07:49:14.776Z,130.50
2017-12-04T07:51:41.591Z,126.32
2017-12-04T07:54:08.414Z,131.87
2017-12-04T07:56:35.958Z,127.57
2017-12-04T07:59:02.825Z,129.87
2017-12-04T08:01:29.640Z,138.05
2017-12-04T08:03:56.494Z,124.65
2017-12-04T08:06:23.312Z,152.02
2017-12-04T08:08:50.168Z,127.18
2017-12-04T08:11:17.000Z,119.18
2017-12-04T08:13:43.835Z,118.32
2017-12-04T08:16:10.645Z,127.62
2017-12-04T08:18:37.483Z,112.82
2017-12-04T08:21:04.372Z,120.35
2017-12-04T08:23:31.228Z,121.57
2017-12-04T08:25:58.072Z,122.10
2017-12-04T08:28:24.908Z,117.32
2017-12-04T08:30:51.689Z,116.70
2017-12-04T08:33:18.535Z,129.73
2017-12-04T08:35:45.383Z,111.65
2017-12-04T08:38:13.179Z,130.40
2017-12-04T08:40:40.051Z,110.75
2017-12-04T08:43:06.922Z,134.52
2017-12-04T08:45:33.715Z,127.18
2017-12-04T08:48:00.511Z,117.00
2017-12-04T08:50:27.342Z,101.32
2017-12-04T08:52:54.902Z,119.60
2017-12-04T08:55:21.719Z,106.35
2017-12-04T08:57:48.524Z,106.47
2017-12-04T09:00:15.411Z,107.28
2017-12-04T09:02:42.253Z,110.50
2017-12-04T09:05:09.080Z,101.90
2017-12-04T09:07:35.928Z,137.57
2017-12-04T09:10:02.796Z,119.05
2017-12-04T09:12:30.233Z,166.48
2017-12-04T09:14:57.857Z,104.35
2017-12-04T09:17:24.795Z,114.90
2017-12-04T09:19:51.672Z,112.93
2017-12-04T09:22:18.529Z,118.10
2017-12-04T09:24:45.337Z,89.05
2017-12-04T09:40:18.932Z,81.68
2017-12-04T09:42:45.787Z,93.82
2017-12-04T09:45:13.448Z,75.32
2017-12-04T09:47:40.369Z,65.03
2017-12-04T09:50:07.227Z,116.72
2017-12-04T09:52:34.117Z,68.82
2017-12-04T09:55:01.007Z,71.87
2017-12-04T09:57:28.637Z,69.72
2017-12-04T09:59:55.499Z,76.00
2017-12-04T10:02:22.327Z,72.22
2017-12-04T10:04:49.172Z,73.60
2017-12-04T10:07:16.046Z,69.25
2017-12-04T10:09:43.669Z,72.37
2017-12-04T10:12:10.533Z,74.25
2017-12-04T10:14:37.423Z,73.60
2017-12-04T10:17:04.300Z,66.65
2017-12-04T10:19:31.928Z,81.12
2017-12-04T10:21:58.794Z,76.80
2017-12-04T10:24:25.659Z,71.00
2017-12-04T10:26:52.503Z,84.78
2017-12-04T10:29:19.377Z,74.05
2017-12-04T10:31:46.294Z,78.85
2017-12-04T10:34:13.890Z,112.30
2017-12-04T10:36:40.790Z,76.95
2017-12-04T10:39:07.740Z,82.82
2017-12-04T10:41:34.630Z,77.15
2017-12-04T10:44:01.546Z,81.25
2017-12-04T10:46:28.490Z,72.10
2017-12-04T10:48:55.385Z,78.40
2017-12-04T10:51:22.302Z,79.82
2017-12-04T10:53:50.023Z,75.82
2017-12-04T10:56:16.996Z,74.87
2017-12-04T10:58:43.908Z,64.20
2017-12-04T11:01:11.634Z,80.03
2017-12-04T11:03:38.540Z,67.35
2017-12-04T11:06:05.478Z,74.00
2017-12-04T11:08:32.366Z,84.60
2017-12-04T11:10:59.294Z,76.82
2017-12-04T11:13:26.176Z,74.75
2017-12-04T11:15:53.031Z,73.37
2017-12-04T11:18:19.877Z,84.87
2017-12-04T11:20:46.791Z,79.95
2017-12-04T11:23:14.421Z,81.82
2017-12-04T11:25:41.348Z,69.95
2017-12-04T11:28:10.412Z,64.10
2017-12-04T11:30:37.429Z,66.30
2017-12-04T11:33:04.307Z,59.70
2017-12-04T11:35:31.241Z,64.62
2017-12-04T11:37:58.874Z,54.65
2017-12-04T11:40:25.794Z,60.40
2017-12-04T11:42:52.708Z,49.30
2017-12-04T11:45:19.632Z,50.92
2017-12-04T11:47:46.904Z,55.37
2017-12-04T11:50:13.816Z,50.05
2017-12-04T11:52:40.691Z,45.30
2017-12-04T11:55:07.604Z,45.67
2017-12-04T11:57:34.480Z,44.77
2017-12-04T12:00:01.362Z,42.83
2017-12-04T12:02:28.270Z,37.83
2017-12-04T12:04:55.176Z,35.22
2017-12-04T12:07:22.080Z,38.17
2017-12-04T12:09:49.695Z,36.00
2017-12-04T12:12:16.571Z,33.78
2017-12-04T12:14:43.483Z,31.17
2017-12-04T12:17:11.204Z,35.10
2017-12-04T12:19:38.110Z,44.93
2017-12-04T12:22:04.951Z,30.27
2017-12-04T12:24:31.831Z,43.63
2017-12-04T12:26:58.753Z,40.10
2017-12-04T12:29:25.627Z,38.30
2017-12-04T12:31:52.481Z,33.60
2017-12-04T12:34:19.358Z,38.93
2017-12-04T12:36:46.263Z,35.03
2017-12-04T12:39:13.920Z,36.15
2017-12-04T12:41:40.805Z,32.10
2017-12-04T12:44:08.436Z,29.73
2017-12-04T12:46:35.303Z,31.17
2017-12-04T12:49:02.172Z,26.65
2017-12-04T12:51:29.062Z,31.15
2017-12-04T12:53:56.136Z,76.03
2017-12-04T12:56:23.802Z,33.20
2017-12-04T12:58:50.977Z,28.75
2017-12-04T13:01:18.624Z,40.57
2017-12-04T13:03:45.488Z,27.02
2017-12-04T13:06:12.391Z,32.28
2017-12-04T13:08:39.260Z,26.30
2017-12-04T13:11:06.873Z,32.30
2017-12-04T13:13:33.733Z,26.58
2017-12-04T13:16:00.611Z,28.20
2017-12-04T13:18:27.482Z,30.92
2017-12-04T13:20:54.327Z,26.12
2017-12-04T13:23:21.221Z,29.10
2017-12-04T13:25:56.289Z,37.63
2017-12-04T13:28:23.463Z,32.95
2017-12-04T13:30:50.478Z,37.40
2017-12-04T13:33:43.255Z,30.87
2017-12-04T13:36:30.920Z,28.83
2017-12-04T13:38:57.884Z,33.03
2017-12-04T13:41:28.546Z,38.03
2017-12-04T13:44:01.141Z,28.75
2017-12-04T13:46:28.228Z,35.50
2017-12-04T13:48:55.917Z,30.67
2017-12-04T13:51:23.294Z,39.78
2017-12-04T13:53:50.279Z,29.85
2017-12-04T13:56:17.183Z,31.67
2017-12-04T13:58:45.054Z,20.33
2017-12-04T14:01:18.201Z,28.27
2017-12-04T14:03:45.426Z,29.80
2017-12-04T14:06:24.075Z,26.85
2017-12-04T14:08:51.074Z,32.63
2017-12-04T14:11:25.288Z,25.87
2017-12-04T14:13:57.942Z,24.63
2017-12-04T14:16:25.777Z,32.80
2017-12-04T14:18:53.178Z,30.95
2017-12-04T14:21:20.874Z,32.03
2017-12-04T14:23:53.077Z,30.67
2017-12-04T14:26:20.254Z,26.87
2017-12-04T14:28:53.101Z,35.40
2017-12-04T14:31:26.227Z,93.50
2017-12-04T14:33:55.147Z,27.70
2017-12-04T14:36:27.108Z,24.70
2017-12-04T14:38:59.236Z,39.43
2017-12-04T14:41:31.799Z,127.70
2017-12-04T14:43:59.543Z,37.60
2017-12-04T14:46:32.664Z,26.83
2017-12-04T14:48:59.591Z,55.03
2017-12-04T14:51:26.863Z,80.00
2017-12-04T14:53:54.280Z,23.83
2017-12-04T14:56:21.181Z,25.83
2017-12-04T14:58:48.633Z,24.65
2017-12-04T15:01:16.651Z,28.55
2017-12-04T15:03:49.913Z,28.13
2017-12-04T15:06:17.190Z,36.85
2017-12-04T15:08:47.427Z,42.90
2017-12-04T15:11:15.344Z,36.43
2017-12-04T15:13:42.380Z,22.83
2017-12-04T15:16:10.424Z,32.53
2017-12-04T15:18:38.495Z,23.40
2017-12-04T15:21:05.749Z,60.13
2017-12-04T15:23:34.077Z,32.47
2017-12-04T15:26:01.390Z,26.65
2017-12-04T15:28:30.751Z,26.73
2017-12-04T15:30:58.654Z,36.65
2017-12-04T15:33:31.185Z,25.07
2017-12-04T15:36:04.530Z,31.83
2017-12-04T15:38:31.554Z,33.47
2017-12-04T15:40:58.599Z,22.17
2017-12-04T15:43:32.715Z,29.57
2017-12-04T15:46:05.018Z,34.78
2017-12-04T15:48:37.154Z,25.75
2017-12-04T15:51:04.730Z,24.75
2017-12-04T15:53:32.027Z,23.90
2017-12-04T15:56:02.771Z,33.72
2017-12-04T15:58:34.944Z,31.03
2017-12-04T16:01:06.645Z,37.88
2017-12-04T16:03:38.856Z,30.40
2017-12-04T16:06:07.065Z,33.33
2017-12-04T16:08:34.715Z,29.10
2017-12-04T16:11:02.781Z,36.30
2017-12-04T16:13:29.643Z,37.73
2017-12-04T16:15:58.120Z,26.60
2017-12-04T16:18:37.745Z,29.35
2017-12-04T16:21:10.304Z,39.58
2017-12-04T16:23:42.524Z,29.45
2017-12-04T16:26:10.823Z,60.28
2017-12-04T16:31:11.102Z,30.27
2017-12-04T16:33:41.713Z,40.83
2017-12-04T16:36:10.009Z,37.95
2017-12-04T16:38:37.880Z,49.63
2017-12-04T16:41:05.138Z,46.60
2017-12-04T16:43:33.000Z,33.37
2017-12-04T16:46:00.097Z,37.93
2017-12-04T16:48:27.617Z,92.07
2017-12-04T16:50:56.458Z,63.35
2017-12-04T16:53:28.768Z,68.85
2017-12-04T16:56:02.964Z,119.68
2017-12-04T16:58:35.349Z,65.60
2017-12-04T17:01:02.314Z,100.00
2017-12-04T17:03:35.471Z,50.70
2017-12-04T17:06:04.129Z,41.17
2017-12-04T17:08:31.137Z,24.27
2017-12-04T17:11:01.030Z,42.83
2017-12-04T17:13:33.433Z,33.88
2017-12-04T17:16:01.343Z,31.23
2017-12-04T17:18:28.295Z,45.77
2017-12-04T17:20:55.238Z,32.53
2017-12-04T17:23:23.971Z,32.58
2017-12-04T17:25:51.882Z,33.55
2017-12-04T17:28:24.185Z,29.52
2017-12-04T17:30:56.609Z,33.00
2017-12-04T17:33:24.969Z,36.77
2017-12-04T17:35:57.168Z,32.60
2017-12-04T17:38:29.959Z,33.45
2017-12-04T17:40:57.067Z,29.80
2017-12-04T17:43:24.253Z,32.70
2017-12-04T17:45:54.116Z,35.20
2017-12-04T17:48:26.504Z,30.67
2017-12-04T17:50:58.888Z,27.40
2017-12-04T17:53:27.296Z,32.25
2017-12-04T17:55:54.258Z,36.17
2017-12-04T17:58:21.283Z,37.75
2017-12-04T18:00:48.294Z,20.62
2017-12-04T18:03:20.546Z,31.30
2017-12-04T18:05:47.457Z,30.70
2017-12-04T18:08:19.527Z,27.52
2017-12-04T18:10:47.623Z,25.17
2017-12-04T18:13:15.071Z,27.00
2017-12-04T18:15:42.033Z,28.35
2017-12-04T18:18:14.844Z,24.52
2017-12-04T18:20:46.942Z,32.97
2017-12-04T18:23:14.811Z,32.25
2017-12-04T18:25:44.814Z,36.00
2017-12-04T18:28:13.298Z,25.05
2017-12-04T18:30:40.945Z,41.95
2017-12-04T18:33:13.203Z,28.50
2017-12-04T18:35:41.044Z,41.53
2017-12-04T18:38:08.172Z,25.20
2017-12-04T18:40:40.442Z,28.00
2017-12-04T18:43:10.956Z,27.65
2017-12-04T18:45:38.959Z,32.28
2017-12-04T18:48:06.958Z,38.47
2017-12-04T18:50:34.186Z,29.37
2017-12-04T18:53:02.332Z,39.83
2017-12-04T18:55:29.249Z,34.47
2017-12-04T18:57:56.586Z,35.30
2017-12-04T19:00:34.610Z,40.63
2017-12-04T19:03:02.362Z,34.78
2017-12-04T19:05:29.899Z,34.58
2017-12-04T19:07:58.065Z,28.58
2017-12-04T19:10:29.241Z,29.43
2017-12-04T19:12:57.464Z,45.47
2017-12-04T19:15:26.097Z,39.20
2017-12-04T19:17:54.470Z,30.07
2017-12-04T19:20:22.656Z,38.15
2017-12-04T19:22:55.253Z,39.72
2017-12-04T19:25:24.177Z,37.35
2017-12-04T19:27:57.233Z,42.70
2017-12-04T19:30:24.322Z,33.72
2017-12-04T19:32:57.546Z,40.65
2017-12-04T19:35:29.717Z,34.77
2017-12-04T19:38:03.134Z,65.57
2017-12-04T19:40:33.106Z,42.63
2017-12-04T19:43:00.802Z,47.62
2017-12-04T19:45:30.045Z,45.92
2017-12-04T19:47:59.468Z,42.92
2017-12-04T19:50:34.785Z,41.85
2017-12-04T19:53:05.051Z,53.87
2017-12-04T19:55:34.443Z,41.20
2017-12-04T19:58:03.044Z,43.33
2017-12-04T20:00:33.082Z,46.37
2017-12-04T20:03:03.172Z,43.90
2017-12-04T20:05:31.547Z,70.90
2017-12-04T20:08:01.871Z,50.38
2017-12-04T20:10:34.453Z,40.00
2017-12-04T20:13:04.889Z,50.45
2017-12-04T20:28:34.831Z,55.65
2017-12-04T20:31:04.976Z,76.85
2017-12-04T20:33:34.541Z,57.95
2017-12-04T20:36:04.380Z,75.27
2017-12-04T20:38:33.635Z,79.07
2017-12-04T20:41:11.721Z,72.22
2017-12-04T20:43:44.227Z,56.57
2017-12-04T20:46:13.458Z,65.03
2017-12-04T20:48:42.539Z,60.13
2017-12-04T20:51:11.728Z,74.73
2017-12-04T20:53:41.757Z,59.72
2017-12-04T20:56:11.069Z,60.53
2017-12-04T20:58:40.255Z,46.23
2017-12-04T21:01:08.690Z,46.10
2017-12-04T21:03:38.614Z,51.25
2017-12-04T21:06:07.154Z,57.38
2017-12-04T21:08:52.535Z,58.70
2017-12-04T21:11:39.344Z,61.25
2017-12-04T21:27:41.986Z,62.72
2017-12-04T21:30:09.222Z,64.85
2017-12-04T21:32:36.187Z,55.67
2017-12-04T21:35:03.132Z,59.45
2017-12-04T21:37:30.074Z,53.50
2017-12-04T21:39:56.984Z,65.78
2017-12-04T21:42:24.055Z,61.30
2017-12-04T21:44:50.973Z,66.45
2017-12-04T21:47:18.084Z,51.33
2017-12-04T21:49:44.992Z,60.47
2017-12-04T21:52:11.967Z,60.90
2017-12-04T21:54:39.005Z,59.47
2017-12-04T21:57:05.942Z,72.65
2017-12-04T21:59:33.647Z,53.87
2017-12-04T22:02:00.491Z,63.63
2017-12-04T22:04:28.171Z,61.00
2017-12-04T22:06:55.084Z,63.20
2017-12-04T22:09:22.724Z,88.97
2017-12-04T22:11:50.373Z,72.37
2017-12-04T22:14:17.315Z,66.95
2017-12-04T22:16:45.007Z,73.03
2017-12-04T22:19:11.944Z,79.65
2017-12-04T22:21:38.905Z,75.10
2017-12-04T22:24:06.335Z,89.78
2017-12-04T22:26:33.476Z,75.93
2017-12-04T22:29:00.425Z,68.03
2017-12-04T22:31:27.409Z,83.20
2017-12-04T22:33:54.540Z,83.10
2017-12-04T22:36:21.548Z,86.30
2017-12-04T22:38:48.485Z,90.10
2017-12-04T22:41:16.195Z,78.62
2017-12-04T22:43:43.113Z,84.50
2017-12-04T22:46:10.031Z,88.10
2017-12-04T22:48:36.963Z,80.47
2017-12-04T22:51:04.650Z,73.05
2017-12-04T22:53:31.564Z,75.82
2017-12-04T22:55:58.452Z,88.70
2017-12-04T22:58:26.146Z,69.25
2017-12-04T23:00:53.218Z,71.93
2017-12-04T23:03:20.759Z,66.57
2017-12-04T23:05:47.700Z,68.10
2017-12-04T23:08:14.592Z,73.10
2017-12-04T23:10:41.676Z,68.95
2017-12-04T23:13:09.316Z,67.47
2017-12-04T23:15:36.252Z,62.90
2017-12-04T23:18:03.132Z,56.03
2017-12-04T23:20:30.011Z,57.88
2017-12-04T23:22:56.907Z,58.70
2017-12-04T23:25:24.532Z,59.10
2017-12-04T23:27:51.459Z,60.22
2017-12-04T23:30:18.332Z,61.10
2017-12-04T23:32:45.204Z,58.17
2017-12-04T23:35:12.146Z,58.42
2017-12-04T23:37:39.765Z,57.78
2017-12-04T23:40:06.681Z,65.75
2017-12-04T23:42:34.338Z,67.50
2017-12-04T23:45:01.154Z,59.88
2017-12-04T23:47:27.996Z,77.22
2017-12-04T23:49:54.873Z,62.08
2017-12-04T23:52:21.679Z,73.20
2017-12-04T23:54:48.489Z,64.25
2017-12-04T23:57:15.380Z,64.07
2017-12-04T23:59:42.223Z,68.93
